Terminal Aerodrome Forecast
Issued by NWS

Current Version | Previous Version | Text Only | Print | Product List | Glossary On
Versions: 1 2 3 4 5 6 7 8 9 10 11 12 13 14 15 16 17 18 19 20 21 22 23 24 25 26 27 28 29 30 31 32 33 34 35 36 37 38 39 40 41 42 43 44 45
000
FTUS43 KGLD 070520
TAFMCK
TAF
KMCK 070520Z 0706/0806 26009KT P6SM OVC120
     FM070900 29009KT P6SM OVC070
     FM071400 32010KT P6SM BKN070
     FM071900 VRB05KT P6SM SCT060
     FM072100 36005KT P6SM SCT050
     FM080000 04010KT P6SM SCT050=

USA.gov is the U.S. government's official web portal to all federal, state and local government web resources and services.